sensor_id;sensor_type;location;lat;lon;timestamp;P1;durP1;ratioP1;P2;durP2;ratioP2
38479;SDS011;62333;51.980;5.934;2023-04-15T00:01:29;2.25;;;0.70;;
38479;SDS011;62333;51.980;5.934;2023-04-15T00:03:57;5.70;;;1.42;;
38479;SDS011;62333;51.980;5.934;2023-04-15T00:06:23;3.45;;;1.35;;
38479;SDS011;62333;51.980;5.934;2023-04-15T00:08:50;3.80;;;1.10;;
38479;SDS011;62333;51.980;5.934;2023-04-15T00:11:16;3.70;;;1.15;;
38479;SDS011;62333;51.980;5.934;2023-04-15T00:13:42;2.70;;;0.90;;
38479;SDS011;62333;51.980;5.934;2023-04-15T00:16:08;2.97;;;1.15;;
38479;SDS011;62333;51.980;5.934;2023-04-15T00:18:34;3.55;;;1.30;;
38479;SDS011;62333;51.980;5.934;2023-04-15T00:21:02;3.10;;;1.13;;
38479;SDS011;62333;51.980;5.934;2023-04-15T00:23:29;3.08;;;1.00;;
38479;SDS011;62333;51.980;5.934;2023-04-15T00:25:55;2.72;;;0.80;;
38479;SDS011;62333;51.980;5.934;2023-04-15T00:28:21;3.22;;;1.40;;
38479;SDS011;62333;51.980;5.934;2023-04-15T00:30:46;5.80;;;1.00;;
38479;SDS011;62333;51.980;5.934;2023-04-15T00:33:12;5.07;;;1.05;;
38479;SDS011;62333;51.980;5.934;2023-04-15T00:35:39;3.90;;;1.20;;
38479;SDS011;62333;51.980;5.934;2023-04-15T00:38:04;2.83;;;1.42;;
38479;SDS011;62333;51.980;5.934;2023-04-15T00:40:34;4.18;;;1.20;;
38479;SDS011;62333;51.980;5.934;2023-04-15T00:43:00;5.55;;;1.20;;
38479;SDS011;62333;51.980;5.934;2023-04-15T00:45:26;5.47;;;1.30;;
38479;SDS011;62333;51.980;5.934;2023-04-15T00:47:53;3.40;;;1.27;;
38479;SDS011;62333;51.980;5.934;2023-04-15T00:50:19;4.00;;;1.23;;
38479;SDS011;62333;51.980;5.934;2023-04-15T00:52:45;5.88;;;1.13;;
38479;SDS011;62333;51.980;5.934;2023-04-15T00:55:11;5.97;;;1.35;;
38479;SDS011;62333;51.980;5.934;2023-04-15T00:57:37;2.78;;;0.80;;
38479;SDS011;62333;51.980;5.934;2023-04-15T01:00:04;3.28;;;1.25;;
38479;SDS011;62333;51.980;5.934;2023-04-15T01:02:32;5.40;;;1.58;;
38479;SDS011;62333;51.980;5.934;2023-04-15T01:04:59;2.55;;;1.20;;
38479;SDS011;62333;51.980;5.934;2023-04-15T01:07:25;2.55;;;1.17;;
38479;SDS011;62333;51.980;5.934;2023-04-15T01:09:51;6.88;;;2.05;;
38479;SDS011;62333;51.980;5.934;2023-04-15T01:12:17;4.50;;;1.55;;
38479;SDS011;62333;51.980;5.934;2023-04-15T01:14:44;2.33;;;0.82;;
38479;SDS011;62333;51.980;5.934;2023-04-15T01:17:10;3.22;;;1.02;;
38479;SDS011;62333;51.980;5.934;2023-04-15T01:19:37;5.80;;;1.42;;
38479;SDS011;62333;51.980;5.934;2023-04-15T01:22:03;4.15;;;1.02;;
38479;SDS011;62333;51.980;5.934;2023-04-15T01:24:30;4.15;;;1.50;;
38479;SDS011;62333;51.980;5.934;2023-04-15T01:26:58;5.15;;;1.33;;
38479;SDS011;62333;51.980;5.934;2023-04-15T01:29:23;4.28;;;0.93;;
38479;SDS011;62333;51.980;5.934;2023-04-15T01:31:50;3.35;;;0.90;;
38479;SDS011;62333;51.980;5.934;2023-04-15T01:34:16;4.53;;;1.67;;
38479;SDS011;62333;51.980;5.934;2023-04-15T01:36:42;3.05;;;0.85;;
38479;SDS011;62333;51.980;5.934;2023-04-15T01:39:08;3.40;;;1.20;;
38479;SDS011;62333;51.980;5.934;2023-04-15T01:41:34;4.40;;;1.40;;
38479;SDS011;62333;51.980;5.934;2023-04-15T01:44:00;2.55;;;1.42;;
38479;SDS011;62333;51.980;5.934;2023-04-15T01:46:26;2.80;;;1.30;;
38479;SDS011;62333;51.980;5.934;2023-04-15T01:48:51;4.60;;;0.90;;
38479;SDS011;62333;51.980;5.934;2023-04-15T01:51:17;4.43;;;1.40;;
38479;SDS011;62333;51.980;5.934;2023-04-15T01:53:43;3.47;;;1.50;;
38479;SDS011;62333;51.980;5.934;2023-04-15T01:56:08;4.00;;;0.95;;
38479;SDS011;62333;51.980;5.934;2023-04-15T01:58:34;2.63;;;0.88;;
38479;SDS011;62333;51.980;5.934;2023-04-15T02:01:00;3.05;;;1.55;;
38479;SDS011;62333;51.980;5.934;2023-04-15T02:03:27;3.63;;;1.35;;
38479;SDS011;62333;51.980;5.934;2023-04-15T02:05:53;2.53;;;0.93;;
38479;SDS011;62333;51.980;5.934;2023-04-15T02:08:19;2.85;;;1.30;;
38479;SDS011;62333;51.980;5.934;2023-04-15T02:10:45;2.78;;;1.30;;
38479;SDS011;62333;51.980;5.934;2023-04-15T02:13:10;4.25;;;1.60;;
38479;SDS011;62333;51.980;5.934;2023-04-15T02:15:36;2.78;;;1.20;;
38479;SDS011;62333;51.980;5.934;2023-04-15T02:18:02;3.30;;;1.00;;
38479;SDS011;62333;51.980;5.934;2023-04-15T02:20:29;2.35;;;1.23;;
38479;SDS011;62333;51.980;5.934;2023-04-15T02:22:56;2.47;;;1.50;;
38479;SDS011;62333;51.980;5.934;2023-04-15T02:25:22;4.28;;;1.70;;
38479;SDS011;62333;51.980;5.934;2023-04-15T02:27:48;3.38;;;0.90;;
38479;SDS011;62333;51.980;5.934;2023-04-15T02:30:13;3.35;;;1.70;;
38479;SDS011;62333;51.980;5.934;2023-04-15T02:32:39;5.18;;;1.30;;
38479;SDS011;62333;51.980;5.934;2023-04-15T02:35:08;3.70;;;1.27;;
38479;SDS011;62333;51.980;5.934;2023-04-15T02:37:35;4.38;;;1.38;;
38479;SDS011;62333;51.980;5.934;2023-04-15T02:40:07;4.18;;;2.13;;
38479;SDS011;62333;51.980;5.934;2023-04-15T02:42:35;2.55;;;1.17;;
38479;SDS011;62333;51.980;5.934;2023-04-15T02:45:02;4.20;;;1.40;;
38479;SDS011;62333;51.980;5.934;2023-04-15T02:47:28;4.32;;;1.95;;
38479;SDS011;62333;51.980;5.934;2023-04-15T02:49:54;4.78;;;1.50;;
38479;SDS011;62333;51.980;5.934;2023-04-15T02:52:19;2.70;;;1.20;;
38479;SDS011;62333;51.980;5.934;2023-04-15T02:54:45;3.75;;;1.55;;
38479;SDS011;62333;51.980;5.934;2023-04-15T02:57:11;4.05;;;1.55;;
38479;SDS011;62333;51.980;5.934;2023-04-15T02:59:37;2.90;;;1.35;;
38479;SDS011;62333;51.980;5.934;2023-04-15T03:02:03;2.70;;;1.30;;
38479;SDS011;62333;51.980;5.934;2023-04-15T03:04:31;2.65;;;0.90;;
38479;SDS011;62333;51.980;5.934;2023-04-15T03:06:57;2.47;;;1.05;;
38479;SDS011;62333;51.980;5.934;2023-04-15T03:09:23;6.28;;;2.17;;
38479;SDS011;62333;51.980;5.934;2023-04-15T03:11:48;2.65;;;1.30;;
38479;SDS011;62333;51.980;5.934;2023-04-15T03:14:17;3.10;;;1.75;;
38479;SDS011;62333;51.980;5.934;2023-04-15T03:16:43;5.63;;;1.48;;
38479;SDS011;62333;51.980;5.934;2023-04-15T03:19:08;3.30;;;1.40;;
38479;SDS011;62333;51.980;5.934;2023-04-15T03:21:34;5.38;;;1.80;;
38479;SDS011;62333;51.980;5.934;2023-04-15T03:23:59;4.32;;;1.90;;
38479;SDS011;62333;51.980;5.934;2023-04-15T03:26:28;4.75;;;2.60;;
38479;SDS011;62333;51.980;5.934;2023-04-15T03:28:55;3.58;;;1.40;;
38479;SDS011;62333;51.980;5.934;2023-04-15T03:31:22;6.55;;;1.63;;
38479;SDS011;62333;51.980;5.934;2023-04-15T03:33:48;3.58;;;1.65;;
38479;SDS011;62333;51.980;5.934;2023-04-15T03:36:13;3.78;;;1.92;;
38479;SDS011;62333;51.980;5.934;2023-04-15T03:38:39;4.68;;;1.90;;
38479;SDS011;62333;51.980;5.934;2023-04-15T03:41:05;3.95;;;1.35;;
38479;SDS011;62333;51.980;5.934;2023-04-15T03:43:31;5.20;;;2.45;;
38479;SDS011;62333;51.980;5.934;2023-04-15T03:45:57;4.78;;;2.08;;
38479;SDS011;62333;51.980;5.934;2023-04-15T03:48:23;2.83;;;1.73;;
38479;SDS011;62333;51.980;5.934;2023-04-15T03:50:48;6.63;;;2.13;;
38479;SDS011;62333;51.980;5.934;2023-04-15T03:53:14;3.10;;;1.52;;
38479;SDS011;62333;51.980;5.934;2023-04-15T03:55:40;3.30;;;1.60;;
38479;SDS011;62333;51.980;5.934;2023-04-15T03:58:05;3.55;;;1.60;;
38479;SDS011;62333;51.980;5.934;2023-04-15T04:00:31;6.07;;;2.05;;
38479;SDS011;62333;51.980;5.934;2023-04-15T04:02:57;4.68;;;1.95;;
38479;SDS011;62333;51.980;5.934;2023-04-15T04:05:22;4.85;;;2.00;;
38479;SDS011;62333;51.980;5.934;2023-04-15T04:07:48;4.38;;;2.15;;
38479;SDS011;62333;51.980;5.934;2023-04-15T04:10:14;4.90;;;2.33;;
38479;SDS011;62333;51.980;5.934;2023-04-15T04:12:40;3.70;;;1.80;;
38479;SDS011;62333;51.980;5.934;2023-04-15T04:15:06;2.83;;;1.80;;
38479;SDS011;62333;51.980;5.934;2023-04-15T04:17:32;5.07;;;2.30;;
38479;SDS011;62333;51.980;5.934;2023-04-15T04:19:58;5.28;;;2.45;;
38479;SDS011;62333;51.980;5.934;2023-04-15T04:22:23;6.68;;;2.47;;
38479;SDS011;62333;51.980;5.934;2023-04-15T04:24:49;4.95;;;2.15;;
38479;SDS011;62333;51.980;5.934;2023-04-15T04:27:15;3.70;;;1.83;;
38479;SDS011;62333;51.980;5.934;2023-04-15T04:29:41;5.07;;;2.20;;
38479;SDS011;62333;51.980;5.934;2023-04-15T04:32:07;5.18;;;2.13;;
38479;SDS011;62333;51.980;5.934;2023-04-15T04:34:32;5.43;;;3.03;;
38479;SDS011;62333;51.980;5.934;2023-04-15T04:36:58;5.03;;;3.20;;
38479;SDS011;62333;51.980;5.934;2023-04-15T04:39:24;3.97;;;2.60;;
38479;SDS011;62333;51.980;5.934;2023-04-15T04:41:50;4.40;;;2.78;;
38479;SDS011;62333;51.980;5.934;2023-04-15T04:44:16;3.63;;;2.08;;
38479;SDS011;62333;51.980;5.934;2023-04-15T04:46:42;4.15;;;2.28;;
38479;SDS011;62333;51.980;5.934;2023-04-15T04:49:08;4.63;;;2.05;;
38479;SDS011;62333;51.980;5.934;2023-04-15T04:51:34;7.13;;;3.53;;
38479;SDS011;62333;51.980;5.934;2023-04-15T04:54:00;5.13;;;2.40;;
38479;SDS011;62333;51.980;5.934;2023-04-15T04:56:26;5.22;;;1.95;;
38479;SDS011;62333;51.980;5.934;2023-04-15T04:58:51;5.28;;;3.13;;
38479;SDS011;62333;51.980;5.934;2023-04-15T05:01:17;5.30;;;3.03;;
38479;SDS011;62333;51.980;5.934;2023-04-15T05:03:43;6.03;;;3.00;;
38479;SDS011;62333;51.980;5.934;2023-04-15T05:06:09;4.40;;;2.80;;
38479;SDS011;62333;51.980;5.934;2023-04-15T05:08:34;4.63;;;2.47;;
38479;SDS011;62333;51.980;5.934;2023-04-15T05:11:01;6.85;;;2.88;;
38479;SDS011;62333;51.980;5.934;2023-04-15T05:13:27;6.30;;;2.78;;
38479;SDS011;62333;51.980;5.934;2023-04-15T05:15:54;6.15;;;2.88;;
38479;SDS011;62333;51.980;5.934;2023-04-15T05:18:20;8.95;;;3.72;;
38479;SDS011;62333;51.980;5.934;2023-04-15T05:20:45;4.40;;;2.88;;
38479;SDS011;62333;51.980;5.934;2023-04-15T05:23:11;6.78;;;3.05;;
38479;SDS011;62333;51.980;5.934;2023-04-15T05:25:37;4.90;;;2.67;;
38479;SDS011;62333;51.980;5.934;2023-04-15T05:28:02;5.60;;;3.22;;
38479;SDS011;62333;51.980;5.934;2023-04-15T05:30:28;6.43;;;2.78;;
38479;SDS011;62333;51.980;5.934;2023-04-15T05:32:54;4.75;;;2.80;;
38479;SDS011;62333;51.980;5.934;2023-04-15T05:35:20;5.43;;;3.22;;
38479;SDS011;62333;51.980;5.934;2023-04-15T05:37:46;4.03;;;2.67;;
38479;SDS011;62333;51.980;5.934;2023-04-15T05:40:11;5.35;;;3.10;;
38479;SDS011;62333;51.980;5.934;2023-04-15T05:42:37;5.88;;;3.50;;
38479;SDS011;62333;51.980;5.934;2023-04-15T05:45:03;5.05;;;2.95;;
38479;SDS011;62333;51.980;5.934;2023-04-15T05:47:33;4.13;;;3.08;;
38479;SDS011;62333;51.980;5.934;2023-04-15T05:50:02;4.47;;;2.85;;
38479;SDS011;62333;51.980;5.934;2023-04-15T05:52:28;6.95;;;3.25;;
38479;SDS011;62333;51.980;5.934;2023-04-15T05:54:54;5.97;;;3.10;;
38479;SDS011;62333;51.980;5.934;2023-04-15T05:57:20;6.22;;;3.72;;
38479;SDS011;62333;51.980;5.934;2023-04-15T05:59:46;5.75;;;2.65;;
38479;SDS011;62333;51.980;5.934;2023-04-15T06:02:11;7.15;;;4.72;;
38479;SDS011;62333;51.980;5.934;2023-04-15T06:04:37;5.38;;;3.53;;
38479;SDS011;62333;51.980;5.934;2023-04-15T06:07:03;7.88;;;3.83;;
38479;SDS011;62333;51.980;5.934;2023-04-15T06:09:28;4.97;;;3.33;;
38479;SDS011;62333;51.980;5.934;2023-04-15T06:11:54;6.63;;;3.97;;
38479;SDS011;62333;51.980;5.934;2023-04-15T06:14:21;8.80;;;3.63;;
38479;SDS011;62333;51.980;5.934;2023-04-15T06:16:47;7.30;;;3.25;;
38479;SDS011;62333;51.980;5.934;2023-04-15T06:19:13;5.95;;;3.92;;
38479;SDS011;62333;51.980;5.934;2023-04-15T06:21:38;7.70;;;3.67;;
38479;SDS011;62333;51.980;5.934;2023-04-15T06:24:05;6.82;;;4.07;;
38479;SDS011;62333;51.980;5.934;2023-04-15T06:26:31;5.25;;;3.25;;
38479;SDS011;62333;51.980;5.934;2023-04-15T06:28:56;5.78;;;2.90;;
38479;SDS011;62333;51.980;5.934;2023-04-15T06:31:22;5.95;;;4.28;;
38479;SDS011;62333;51.980;5.934;2023-04-15T06:33:47;6.55;;;3.88;;
38479;SDS011;62333;51.980;5.934;2023-04-15T06:36:13;5.35;;;3.15;;
38479;SDS011;62333;51.980;5.934;2023-04-15T06:38:39;6.57;;;3.05;;
38479;SDS011;62333;51.980;5.934;2023-04-15T06:41:05;4.25;;;2.47;;
38479;SDS011;62333;51.980;5.934;2023-04-15T06:43:31;5.13;;;3.65;;
38479;SDS011;62333;51.980;5.934;2023-04-15T06:45:57;5.85;;;3.13;;
38479;SDS011;62333;51.980;5.934;2023-04-15T06:48:23;5.20;;;3.03;;
38479;SDS011;62333;51.980;5.934;2023-04-15T06:50:48;5.57;;;2.83;;
38479;SDS011;62333;51.980;5.934;2023-04-15T06:53:14;5.97;;;3.83;;
38479;SDS011;62333;51.980;5.934;2023-04-15T06:55:40;6.35;;;3.00;;
38479;SDS011;62333;51.980;5.934;2023-04-15T06:58:06;5.65;;;3.67;;
38479;SDS011;62333;51.980;5.934;2023-04-15T07:00:32;5.47;;;3.58;;
38479;SDS011;62333;51.980;5.934;2023-04-15T07:02:58;5.35;;;2.95;;
38479;SDS011;62333;51.980;5.934;2023-04-15T07:05:28;6.28;;;3.63;;
38479;SDS011;62333;51.980;5.934;2023-04-15T07:07:54;5.75;;;3.03;;
38479;SDS011;62333;51.980;5.934;2023-04-15T07:10:20;5.15;;;3.35;;
38479;SDS011;62333;51.980;5.934;2023-04-15T07:12:46;6.72;;;4.53;;
38479;SDS011;62333;51.980;5.934;2023-04-15T07:15:13;4.97;;;3.40;;
38479;SDS011;62333;51.980;5.934;2023-04-15T07:17:40;5.00;;;3.30;;
38479;SDS011;62333;51.980;5.934;2023-04-15T07:20:07;5.40;;;3.35;;
38479;SDS011;62333;51.980;5.934;2023-04-15T07:22:33;6.55;;;2.38;;
38479;SDS011;62333;51.980;5.934;2023-04-15T07:24:59;3.72;;;1.92;;
38479;SDS011;62333;51.980;5.934;2023-04-15T07:27:25;5.97;;;1.85;;
38479;SDS011;62333;51.980;5.934;2023-04-15T07:29:51;4.60;;;2.70;;
38479;SDS011;62333;51.980;5.934;2023-04-15T07:32:17;3.95;;;2.83;;
38479;SDS011;62333;51.980;5.934;2023-04-15T07:34:43;4.13;;;2.10;;
38479;SDS011;62333;51.980;5.934;2023-04-15T07:37:09;3.88;;;2.50;;
38479;SDS011;62333;51.980;5.934;2023-04-15T07:39:35;5.95;;;3.65;;
38479;SDS011;62333;51.980;5.934;2023-04-15T07:42:01;4.63;;;2.10;;
38479;SDS011;62333;51.980;5.934;2023-04-15T07:44:28;6.70;;;2.38;;
38479;SDS011;62333;51.980;5.934;2023-04-15T07:46:54;4.45;;;2.60;;
38479;SDS011;62333;51.980;5.934;2023-04-15T07:49:20;4.78;;;2.70;;
38479;SDS011;62333;51.980;5.934;2023-04-15T07:51:46;5.13;;;3.03;;
38479;SDS011;62333;51.980;5.934;2023-04-15T07:54:13;4.80;;;3.03;;
38479;SDS011;62333;51.980;5.934;2023-04-15T07:56:39;5.68;;;3.10;;
38479;SDS011;62333;51.980;5.934;2023-04-15T07:59:05;5.47;;;3.10;;
38479;SDS011;62333;51.980;5.934;2023-04-15T08:01:31;5.43;;;2.53;;
38479;SDS011;62333;51.980;5.934;2023-04-15T08:03:59;4.00;;;2.22;;
38479;SDS011;62333;51.980;5.934;2023-04-15T08:06:25;3.85;;;2.42;;
38479;SDS011;62333;51.980;5.934;2023-04-15T08:08:51;4.07;;;2.17;;
38479;SDS011;62333;51.980;5.934;2023-04-15T08:11:18;4.80;;;2.60;;
38479;SDS011;62333;51.980;5.934;2023-04-15T08:13:45;5.28;;;2.92;;
38479;SDS011;62333;51.980;5.934;2023-04-15T08:21:08;3.63;;;1.77;;
38479;SDS011;62333;51.980;5.934;2023-04-15T08:23:34;5.38;;;2.17;;
38479;SDS011;62333;51.980;5.934;2023-04-15T08:26:00;3.05;;;1.77;;
38479;SDS011;62333;51.980;5.934;2023-04-15T08:28:26;3.67;;;1.83;;
38479;SDS011;62333;51.980;5.934;2023-04-15T08:30:52;5.22;;;1.98;;
38479;SDS011;62333;51.980;5.934;2023-04-15T08:33:17;5.38;;;1.48;;
38479;SDS011;62333;51.980;5.934;2023-04-15T08:35:43;3.70;;;1.85;;
38479;SDS011;62333;51.980;5.934;2023-04-15T08:38:09;3.80;;;1.58;;
38479;SDS011;62333;51.980;5.934;2023-04-15T08:40:39;2.40;;;1.23;;
38479;SDS011;62333;51.980;5.934;2023-04-15T08:43:06;2.58;;;1.15;;
38479;SDS011;62333;51.980;5.934;2023-04-15T08:45:36;2.80;;;1.70;;
38479;SDS011;62333;51.980;5.934;2023-04-15T08:48:04;4.40;;;1.58;;
38479;SDS011;62333;51.980;5.934;2023-04-15T08:50:31;3.05;;;1.55;;
38479;SDS011;62333;51.980;5.934;2023-04-15T08:53:00;2.38;;;1.17;;
38479;SDS011;62333;51.980;5.934;2023-04-15T08:55:27;1.95;;;0.88;;
38479;SDS011;62333;51.980;5.934;2023-04-15T09:00:25;2.30;;;1.00;;
38479;SDS011;62333;51.980;5.934;2023-04-15T09:02:51;1.95;;;0.85;;
38479;SDS011;62333;51.980;5.934;2023-04-15T09:05:18;2.10;;;0.90;;
38479;SDS011;62333;51.980;5.934;2023-04-15T09:07:45;3.03;;;1.23;;
38479;SDS011;62333;51.980;5.934;2023-04-15T09:10:11;2.28;;;0.93;;
38479;SDS011;62333;51.980;5.934;2023-04-15T09:12:37;2.65;;;0.73;;
38479;SDS011;62333;51.980;5.934;2023-04-15T09:15:02;1.67;;;0.77;;
38479;SDS011;62333;51.980;5.934;2023-04-15T09:17:29;2.20;;;0.95;;
38479;SDS011;62333;51.980;5.934;2023-04-15T09:20:07;2.15;;;1.00;;
38479;SDS011;62333;51.980;5.934;2023-04-15T09:22:40;1.92;;;0.80;;
38479;SDS011;62333;51.980;5.934;2023-04-15T09:30:14;2.63;;;0.85;;
38479;SDS011;62333;51.980;5.934;2023-04-15T09:35:16;3.50;;;1.60;;
38479;SDS011;62333;51.980;5.934;2023-04-15T09:37:42;2.42;;;1.25;;
38479;SDS011;62333;51.980;5.934;2023-04-15T09:40:08;3.30;;;1.67;;
38479;SDS011;62333;51.980;5.934;2023-04-15T09:42:34;3.00;;;1.10;;
38479;SDS011;62333;51.980;5.934;2023-04-15T09:45:07;3.25;;;1.13;;
38479;SDS011;62333;51.980;5.934;2023-04-15T09:47:36;1.40;;;0.65;;
38479;SDS011;62333;51.980;5.934;2023-04-15T09:50:02;2.83;;;1.38;;
38479;SDS011;62333;51.980;5.934;2023-04-15T09:52:28;3.05;;;0.90;;
38479;SDS011;62333;51.980;5.934;2023-04-15T09:54:55;2.47;;;0.77;;
38479;SDS011;62333;51.980;5.934;2023-04-15T09:57:22;2.30;;;0.93;;
38479;SDS011;62333;51.980;5.934;2023-04-15T09:59:48;2.03;;;0.70;;
38479;SDS011;62333;51.980;5.934;2023-04-15T10:02:15;2.78;;;1.02;;
38479;SDS011;62333;51.980;5.934;2023-04-15T10:04:44;1.65;;;0.68;;
38479;SDS011;62333;51.980;5.934;2023-04-15T10:07:12;1.30;;;0.50;;
38479;SDS011;62333;51.980;5.934;2023-04-15T10:09:39;1.45;;;0.73;;
38479;SDS011;62333;51.980;5.934;2023-04-15T10:12:05;3.10;;;1.30;;
38479;SDS011;62333;51.980;5.934;2023-04-15T10:14:32;2.78;;;1.35;;
38479;SDS011;62333;51.980;5.934;2023-04-15T10:17:02;3.15;;;1.15;;
38479;SDS011;62333;51.980;5.934;2023-04-15T10:19:33;1.92;;;0.77;;
38479;SDS011;62333;51.980;5.934;2023-04-15T10:24:27;1.88;;;0.70;;
38479;SDS011;62333;51.980;5.934;2023-04-15T10:26:55;2.50;;;1.40;;
38479;SDS011;62333;51.980;5.934;2023-04-15T10:29:21;1.77;;;0.70;;
38479;SDS011;62333;51.980;5.934;2023-04-15T10:31:50;2.28;;;0.85;;
38479;SDS011;62333;51.980;5.934;2023-04-15T10:34:16;1.75;;;0.70;;
38479;SDS011;62333;51.980;5.934;2023-04-15T10:36:43;2.03;;;0.70;;
38479;SDS011;62333;51.980;5.934;2023-04-15T10:47:14;2.25;;;0.77;;
38479;SDS011;62333;51.980;5.934;2023-04-15T10:49:56;2.55;;;1.17;;
38479;SDS011;62333;51.980;5.934;2023-04-15T10:52:24;1.85;;;0.52;;
38479;SDS011;62333;51.980;5.934;2023-04-15T10:57:43;1.77;;;0.93;;
38479;SDS011;62333;51.980;5.934;2023-04-15T11:00:15;2.88;;;0.70;;
38479;SDS011;62333;51.980;5.934;2023-04-15T11:05:09;2.70;;;1.23;;
38479;SDS011;62333;51.980;5.934;2023-04-15T11:12:41;1.95;;;0.82;;
38479;SDS011;62333;51.980;5.934;2023-04-15T11:15:27;2.17;;;0.40;;
38479;SDS011;62333;51.980;5.934;2023-04-15T11:17:56;3.95;;;0.80;;
38479;SDS011;62333;51.980;5.934;2023-04-15T11:20:23;2.55;;;0.85;;
38479;SDS011;62333;51.980;5.934;2023-04-15T11:22:49;1.52;;;0.45;;
38479;SDS011;62333;51.980;5.934;2023-04-15T11:25:23;1.90;;;0.55;;
38479;SDS011;62333;51.980;5.934;2023-04-15T11:27:51;1.55;;;0.65;;
38479;SDS011;62333;51.980;5.934;2023-04-15T11:30:19;1.35;;;0.50;;
38479;SDS011;62333;51.980;5.934;2023-04-15T11:32:53;1.80;;;0.55;;
38479;SDS011;62333;51.980;5.934;2023-04-15T11:35:21;1.65;;;0.70;;
38479;SDS011;62333;51.980;5.934;2023-04-15T11:37:47;2.63;;;0.95;;
38479;SDS011;62333;51.980;5.934;2023-04-15T11:40:14;3.03;;;0.35;;
38479;SDS011;62333;51.980;5.934;2023-04-15T11:42:41;1.13;;;0.35;;
38479;SDS011;62333;51.980;5.934;2023-04-15T11:45:08;1.95;;;0.50;;
38479;SDS011;62333;51.980;5.934;2023-04-15T11:47:36;1.40;;;0.50;;
38479;SDS011;62333;51.980;5.934;2023-04-15T11:50:18;1.92;;;0.30;;
38479;SDS011;62333;51.980;5.934;2023-04-15T11:52:55;1.35;;;0.43;;
38479;SDS011;62333;51.980;5.934;2023-04-15T11:55:26;1.55;;;0.40;;
38479;SDS011;62333;51.980;5.934;2023-04-15T11:58:05;2.63;;;0.30;;
38479;SDS011;62333;51.980;5.934;2023-04-15T12:00:59;2.15;;;0.70;;
38479;SDS011;62333;51.980;5.934;2023-04-15T12:03:41;1.52;;;0.40;;
38479;SDS011;62333;51.980;5.934;2023-04-15T12:06:19;0.93;;;0.20;;
38479;SDS011;62333;51.980;5.934;2023-04-15T12:11:47;1.30;;;0.30;;
38479;SDS011;62333;51.980;5.934;2023-04-15T12:22:02;2.42;;;0.28;;
38479;SDS011;62333;51.980;5.934;2023-04-15T12:24:30;0.77;;;0.10;;
38479;SDS011;62333;51.980;5.934;2023-04-15T12:26:57;0.60;;;0.13;;
38479;SDS011;62333;51.980;5.934;2023-04-15T12:29:26;1.15;;;0.30;;
38479;SDS011;62333;51.980;5.934;2023-04-15T12:31:56;0.80;;;0.22;;
38479;SDS011;62333;51.980;5.934;2023-04-15T12:34:28;0.90;;;0.20;;
38479;SDS011;62333;51.980;5.934;2023-04-15T12:36:55;0.88;;;0.32;;
38479;SDS011;62333;51.980;5.934;2023-04-15T12:39:22;0.70;;;0.47;;
38479;SDS011;62333;51.980;5.934;2023-04-15T12:41:49;0.77;;;0.10;;
38479;SDS011;62333;51.980;5.934;2023-04-15T12:44:15;0.85;;;0.22;;
38479;SDS011;62333;51.980;5.934;2023-04-15T12:46:41;0.57;;;0.10;;
38479;SDS011;62333;51.980;5.934;2023-04-15T12:49:07;1.00;;;0.10;;
38479;SDS011;62333;51.980;5.934;2023-04-15T12:51:33;0.82;;;0.28;;
38479;SDS011;62333;51.980;5.934;2023-04-15T12:53:59;3.00;;;0.65;;
38479;SDS011;62333;51.980;5.934;2023-04-15T12:56:24;0.68;;;0.20;;
38479;SDS011;62333;51.980;5.934;2023-04-15T12:58:50;2.47;;;0.52;;
38479;SDS011;62333;51.980;5.934;2023-04-15T13:01:16;0.80;;;0.20;;
38479;SDS011;62333;51.980;5.934;2023-04-15T13:03:42;1.50;;;0.20;;
38479;SDS011;62333;51.980;5.934;2023-04-15T13:06:08;0.88;;;0.30;;
38479;SDS011;62333;51.980;5.934;2023-04-15T13:08:34;0.55;;;0.20;;
38479;SDS011;62333;51.980;5.934;2023-04-15T13:11:00;1.95;;;0.30;;
38479;SDS011;62333;51.980;5.934;2023-04-15T13:13:25;1.10;;;0.30;;
38479;SDS011;62333;51.980;5.934;2023-04-15T13:15:51;0.82;;;0.20;;
38479;SDS011;62333;51.980;5.934;2023-04-15T13:18:17;1.05;;;0.28;;
38479;SDS011;62333;51.980;5.934;2023-04-15T13:20:43;1.38;;;0.73;;
38479;SDS011;62333;51.980;5.934;2023-04-15T13:23:09;0.90;;;0.20;;
38479;SDS011;62333;51.980;5.934;2023-04-15T13:25:35;1.10;;;0.20;;
38479;SDS011;62333;51.980;5.934;2023-04-15T13:28:01;3.88;;;0.80;;
38479;SDS011;62333;51.980;5.934;2023-04-15T13:30:27;0.40;;;0.10;;
38479;SDS011;62333;51.980;5.934;2023-04-15T13:32:52;1.15;;;0.25;;
38479;SDS011;62333;51.980;5.934;2023-04-15T13:35:19;1.67;;;0.20;;
38479;SDS011;62333;51.980;5.934;2023-04-15T13:37:45;1.52;;;0.40;;
38479;SDS011;62333;51.980;5.934;2023-04-15T13:40:11;1.13;;;0.40;;
38479;SDS011;62333;51.980;5.934;2023-04-15T13:42:37;0.50;;;0.10;;
38479;SDS011;62333;51.980;5.934;2023-04-15T13:45:03;0.32;;;0.10;;
38479;SDS011;62333;51.980;5.934;2023-04-15T13:47:29;0.47;;;0.10;;
38479;SDS011;62333;51.980;5.934;2023-04-15T13:49:54;1.10;;;0.32;;
38479;SDS011;62333;51.980;5.934;2023-04-15T13:52:21;1.17;;;0.20;;
38479;SDS011;62333;51.980;5.934;2023-04-15T13:54:47;1.70;;;0.73;;
38479;SDS011;62333;51.980;5.934;2023-04-15T13:57:13;0.65;;;0.10;;
38479;SDS011;62333;51.980;5.934;2023-04-15T13:59:39;1.83;;;0.65;;
38479;SDS011;62333;51.980;5.934;2023-04-15T14:02:05;1.15;;;0.20;;
38479;SDS011;62333;51.980;5.934;2023-04-15T14:04:31;0.15;;;0.03;;
38479;SDS011;62333;51.980;5.934;2023-04-15T14:06:57;0.93;;;0.10;;
38479;SDS011;62333;51.980;5.934;2023-04-15T14:09:22;1.38;;;0.20;;
38479;SDS011;62333;51.980;5.934;2023-04-15T14:11:49;0.77;;;0.10;;
38479;SDS011;62333;51.980;5.934;2023-04-15T14:14:15;1.67;;;0.20;;
38479;SDS011;62333;51.980;5.934;2023-04-15T14:16:41;0.60;;;0.10;;
38479;SDS011;62333;51.980;5.934;2023-04-15T14:19:06;0.75;;;0.20;;
38479;SDS011;62333;51.980;5.934;2023-04-15T14:21:32;0.60;;;0.20;;
38479;SDS011;62333;51.980;5.934;2023-04-15T14:23:58;1.70;;;0.20;;
38479;SDS011;62333;51.980;5.934;2023-04-15T14:26:24;4.97;;;0.40;;
38479;SDS011;62333;51.980;5.934;2023-04-15T14:28:49;1.17;;;0.40;;
38479;SDS011;62333;51.980;5.934;2023-04-15T14:31:15;0.30;;;0.10;;
38479;SDS011;62333;51.980;5.934;2023-04-15T14:33:41;0.77;;;0.10;;
38479;SDS011;62333;51.980;5.934;2023-04-15T14:36:07;1.50;;;0.20;;
38479;SDS011;62333;51.980;5.934;2023-04-15T14:38:34;0.70;;;0.28;;
38479;SDS011;62333;51.980;5.934;2023-04-15T14:41:04;1.05;;;0.20;;
38479;SDS011;62333;51.980;5.934;2023-04-15T14:43:31;0.32;;;0.10;;
38479;SDS011;62333;51.980;5.934;2023-04-15T14:45:57;1.40;;;0.38;;
38479;SDS011;62333;51.980;5.934;2023-04-15T14:48:23;1.23;;;0.20;;
38479;SDS011;62333;51.980;5.934;2023-04-15T14:50:48;1.23;;;0.20;;
38479;SDS011;62333;51.980;5.934;2023-04-15T14:53:14;0.82;;;0.22;;
38479;SDS011;62333;51.980;5.934;2023-04-15T14:55:40;1.23;;;0.30;;
38479;SDS011;62333;51.980;5.934;2023-04-15T14:58:06;2.10;;;0.20;;
38479;SDS011;62333;51.980;5.934;2023-04-15T15:00:35;0.63;;;0.30;;
38479;SDS011;62333;51.980;5.934;2023-04-15T15:03:04;2.42;;;0.30;;
38479;SDS011;62333;51.980;5.934;2023-04-15T15:05:36;1.27;;;0.30;;
38479;SDS011;62333;51.980;5.934;2023-04-15T15:08:02;3.10;;;0.30;;
38479;SDS011;62333;51.980;5.934;2023-04-15T15:10:30;0.68;;;0.10;;
38479;SDS011;62333;51.980;5.934;2023-04-15T15:12:55;0.82;;;0.20;;
38479;SDS011;62333;51.980;5.934;2023-04-15T15:15:21;0.90;;;0.30;;
38479;SDS011;62333;51.980;5.934;2023-04-15T15:17:47;2.20;;;0.30;;
38479;SDS011;62333;51.980;5.934;2023-04-15T15:20:12;2.28;;;0.47;;
38479;SDS011;62333;51.980;5.934;2023-04-15T15:22:38;1.48;;;0.63;;
38479;SDS011;62333;51.980;5.934;2023-04-15T15:25:04;1.02;;;0.20;;
38479;SDS011;62333;51.980;5.934;2023-04-15T15:27:30;4.85;;;0.52;;
38479;SDS011;62333;51.980;5.934;2023-04-15T15:29:56;1.70;;;0.43;;
38479;SDS011;62333;51.980;5.934;2023-04-15T15:32:22;2.67;;;0.20;;